createdAt,value
2022-10-02T00:00:01.594Z,80.57
2022-10-02T00:02:42.986Z,81.01
2022-10-02T00:05:21.386Z,81.05
2022-10-02T00:08:05.071Z,80.58
2022-10-02T00:10:41.181Z,80.81
2022-10-02T00:13:12.217Z,80.45
2022-10-02T00:15:41.528Z,80.74
2022-10-02T00:18:13.832Z,80.52
2022-10-02T00:20:53.675Z,81.05
2022-10-02T00:23:33.075Z,80.57
2022-10-02T00:26:10.669Z,80.44
2022-10-02T00:29:03.947Z,80.40
2022-10-02T00:31:49.044Z,80.18
2022-10-02T00:34:40.075Z,80.50
2022-10-02T00:37:44.294Z,80.73
2022-10-02T00:40:37.279Z,80.34
2022-10-02T00:43:04.412Z,80.38
2022-10-02T00:45:56.023Z,80.57
2022-10-02T00:48:41.096Z,80.48
2022-10-02T00:51:29.268Z,80.03
2022-10-02T00:54:26.724Z,80.01
2022-10-02T00:57:04.292Z,80.75
2022-10-02T00:59:46.110Z,80.18
2022-10-02T01:02:30.987Z,80.71
2022-10-02T01:05:00.523Z,80.58
2022-10-02T01:07:27.876Z,80.52
2022-10-02T01:09:54.622Z,80.52
2022-10-02T01:12:22.197Z,80.01
2022-10-02T01:14:48.664Z,80.00
2022-10-02T01:17:31.829Z,80.17
2022-10-02T01:20:01.497Z,79.94
2022-10-02T01:23:12.577Z,80.16
2022-10-02T01:25:39.321Z,80.45
2022-10-02T01:28:06.143Z,80.11
2022-10-02T01:30:35.685Z,80.00
2022-10-02T01:33:04.265Z,80.35
2022-10-02T01:35:33.689Z,79.83
2022-10-02T01:38:03.529Z,80.05
2022-10-02T01:40:35.211Z,79.37
2022-10-02T01:43:09.408Z,79.47
2022-10-02T01:45:50.891Z,79.95
2022-10-02T01:48:22.028Z,79.47
2022-10-02T01:51:03.744Z,79.83
2022-10-02T01:53:45.124Z,79.56
2022-10-02T01:56:18.858Z,79.29
2022-10-02T01:59:00.870Z,79.95
2022-10-02T02:01:36.372Z,79.70
2022-10-02T02:04:27.093Z,79.10
2022-10-02T02:07:10.231Z,79.56
2022-10-02T02:09:54.980Z,79.57
2022-10-02T02:12:28.423Z,79.27
2022-10-02T02:15:03.784Z,80.32
2022-10-02T02:17:46.380Z,80.09
2022-10-02T02:20:22.718Z,79.97
2022-10-02T02:22:53.096Z,80.13
2022-10-02T02:25:25.164Z,79.84
2022-10-02T02:27:57.171Z,79.48
2022-10-02T02:30:24.929Z,79.75
2022-10-02T02:32:56.830Z,79.79
2022-10-02T02:35:27.462Z,79.45
2022-10-02T02:37:58.589Z,79.81
2022-10-02T02:40:29.432Z,79.69
2022-10-02T02:43:08.973Z,79.37
2022-10-02T02:45:41.861Z,79.41
2022-10-02T02:48:27.815Z,80.05
2022-10-02T02:51:01.451Z,79.20
2022-10-02T02:53:36.938Z,79.24
2022-10-02T02:56:08.750Z,79.57
2022-10-02T02:58:43.682Z,79.80
2022-10-02T03:01:10.611Z,79.07
2022-10-02T03:03:37.356Z,78.86
2022-10-02T03:06:26.195Z,79.44
2022-10-02T03:08:53.852Z,79.27
2022-10-02T03:12:00.629Z,79.48
2022-10-02T03:14:27.068Z,79.01
2022-10-02T03:17:19.713Z,79.26
2022-10-02T03:20:11.242Z,78.84
2022-10-02T03:22:53.621Z,78.60
2022-10-02T03:25:31.715Z,79.04
2022-10-02T03:28:56.029Z,78.86
2022-10-02T03:31:24.905Z,78.56
2022-10-02T03:33:53.826Z,78.65
2022-10-02T03:36:22.109Z,78.71
2022-10-02T03:39:00.681Z,78.56
2022-10-02T03:41:33.282Z,79.10
2022-10-02T03:43:59.947Z,79.16
2022-10-02T03:46:26.472Z,78.93
2022-10-02T03:48:53.080Z,78.82
2022-10-02T03:51:19.548Z,78.95
2022-10-02T03:53:45.995Z,78.97
2022-10-02T03:56:40.101Z,79.11
2022-10-02T03:59:14.885Z,78.90
2022-10-02T04:01:49.407Z,78.71
2022-10-02T04:04:26.754Z,78.97
2022-10-02T04:07:05.565Z,79.37
2022-10-02T04:09:58.159Z,79.37
2022-10-02T04:12:34.177Z,78.30
2022-10-02T04:15:06.910Z,78.58
2022-10-02T04:18:15.785Z,78.66
2022-10-02T04:20:49.143Z,79.00
2022-10-02T04:23:37.872Z,79.41
2022-10-02T04:26:22.192Z,78.92
2022-10-02T04:28:56.935Z,78.51
2022-10-02T04:31:27.232Z,79.22
2022-10-02T04:34:00.893Z,79.31
2022-10-02T04:36:46.122Z,79.22
2022-10-02T04:39:37.207Z,78.88
2022-10-02T04:42:34.366Z,79.65
2022-10-02T04:45:29.047Z,79.66
2022-10-02T04:48:32.688Z,79.63
2022-10-02T04:51:24.165Z,80.19
2022-10-02T04:54:13.778Z,79.69
2022-10-02T04:56:56.973Z,79.53
2022-10-02T05:00:11.543Z,79.74
2022-10-02T05:02:50.127Z,79.44
2022-10-02T05:05:22.536Z,79.71
2022-10-02T05:08:17.030Z,79.46
2022-10-02T05:10:52.492Z,79.60
2022-10-02T05:13:56.078Z,79.93
2022-10-02T05:16:39.337Z,79.71
2022-10-02T05:22:24.243Z,79.88
2022-10-02T05:25:07.661Z,80.10
2022-10-02T05:28:00.128Z,80.40
2022-10-02T05:30:34.155Z,80.38
2022-10-02T05:33:10.592Z,80.22
2022-10-02T05:35:55.043Z,79.57
2022-10-02T05:38:29.478Z,80.54
2022-10-02T05:41:03.714Z,80.59
2022-10-02T05:44:08.864Z,79.80
2022-10-02T05:46:43.879Z,79.80
2022-10-02T05:49:20.497Z,79.30
2022-10-02T05:52:02.292Z,79.98
2022-10-02T05:54:53.888Z,80.01
2022-10-02T05:57:44.174Z,80.14
2022-10-02T06:00:17.009Z,80.29
2022-10-02T06:03:08.215Z,79.65
2022-10-02T06:05:55.562Z,80.14
2022-10-02T06:08:35.793Z,80.74
2022-10-02T06:11:06.933Z,80.38
2022-10-02T06:13:56.636Z,80.00
2022-10-02T06:16:30.325Z,80.82
2022-10-02T06:21:55.017Z,79.98
2022-10-02T06:24:31.682Z,79.19
2022-10-02T06:27:08.667Z,79.05
2022-10-02T06:29:42.319Z,79.42
2022-10-02T06:32:25.274Z,79.42
2022-10-02T06:34:56.180Z,79.39
2022-10-02T06:37:52.834Z,78.95
2022-10-02T06:40:34.678Z,79.01
2022-10-02T06:43:27.559Z,78.75
2022-10-02T06:46:23.869Z,78.00
2022-10-02T06:49:05.555Z,77.82
2022-10-02T06:51:49.328Z,77.97
2022-10-02T06:54:38.831Z,78.15
2022-10-02T06:57:29.518Z,78.23
2022-10-02T07:00:03.474Z,77.53
2022-10-02T07:02:47.386Z,78.17
2022-10-02T07:05:53.208Z,77.23
2022-10-02T07:08:42.957Z,77.32
2022-10-02T07:11:19.190Z,77.67
2022-10-02T07:14:15.032Z,78.53
2022-10-02T07:16:50.528Z,77.93
2022-10-02T07:19:32.009Z,77.15
2022-10-02T07:22:44.047Z,77.74
2022-10-02T07:25:35.997Z,77.71
2022-10-02T07:28:25.540Z,77.87
2022-10-02T07:31:11.502Z,78.04
2022-10-02T07:33:47.140Z,77.13
2022-10-02T07:36:26.193Z,77.14
2022-10-02T07:39:14.433Z,77.49
2022-10-02T07:42:05.423Z,77.03
2022-10-02T07:44:50.089Z,77.30
2022-10-02T07:47:41.451Z,76.95
2022-10-02T07:50:18.298Z,77.14
2022-10-02T07:53:05.636Z,77.18
2022-10-02T07:55:35.427Z,76.65
2022-10-02T07:58:19.899Z,76.76
2022-10-02T08:00:54.578Z,76.97
2022-10-02T08:03:25.706Z,76.25
2022-10-02T08:05:54.976Z,77.05
2022-10-02T08:08:49.086Z,76.55
2022-10-02T08:11:54.128Z,77.22
2022-10-02T08:14:38.254Z,76.81
2022-10-02T08:17:14.475Z,76.34
2022-10-02T08:19:47.936Z,76.46
2022-10-02T08:22:33.657Z,76.24
2022-10-02T08:25:14.832Z,75.93
2022-10-02T08:27:44.167Z,76.89
2022-10-02T08:30:14.832Z,76.59
2022-10-02T08:32:41.420Z,76.39
2022-10-02T08:35:13.096Z,76.99
2022-10-02T08:37:46.703Z,76.85
2022-10-02T08:40:41.136Z,76.34
2022-10-02T08:43:46.833Z,76.47
2022-10-02T08:46:33.943Z,76.46
2022-10-02T08:49:32.015Z,76.35
2022-10-02T08:52:17.050Z,76.46
2022-10-02T08:55:22.260Z,76.20
2022-10-02T08:58:19.460Z,76.61
2022-10-02T09:01:01.868Z,76.66
2022-10-02T09:04:22.411Z,76.77
2022-10-02T09:07:07.578Z,76.84
2022-10-02T09:09:42.967Z,76.50
2022-10-02T09:12:58.154Z,77.24
2022-10-02T09:15:44.972Z,75.98
2022-10-02T09:18:18.674Z,76.05
2022-10-02T09:21:11.660Z,76.60
2022-10-02T09:24:11.768Z,76.97
2022-10-02T09:26:51.349Z,76.57
2022-10-02T09:29:45.828Z,76.63
2022-10-02T09:32:24.473Z,76.62
2022-10-02T09:35:23.455Z,77.09
2022-10-02T09:38:27.232Z,76.58
2022-10-02T09:41:32.118Z,76.67
2022-10-02T09:44:07.831Z,77.67
2022-10-02T09:47:13.166Z,77.21
2022-10-02T09:50:10.252Z,77.16
2022-10-02T09:53:08.882Z,77.43
2022-10-02T09:55:55.001Z,77.07
2022-10-02T09:59:13.348Z,77.06
2022-10-02T10:02:02.522Z,77.21
2022-10-02T10:05:04.588Z,77.37
2022-10-02T10:08:00.450Z,77.63
2022-10-02T10:10:53.082Z,78.22
2022-10-02T10:13:53.500Z,77.93
2022-10-02T10:16:41.552Z,77.59
2022-10-02T10:19:31.287Z,77.87
2022-10-02T10:22:23.837Z,78.42
2022-10-02T10:25:28.174Z,78.20
2022-10-02T10:28:10.122Z,78.08
2022-10-02T10:31:02.156Z,77.77
2022-10-02T10:34:03.092Z,78.39
2022-10-02T10:37:14.531Z,78.04
2022-10-02T10:40:07.140Z,78.56
2022-10-02T10:43:06.972Z,78.78
2022-10-02T10:46:03.894Z,78.87
2022-10-02T10:48:52.283Z,78.59
2022-10-02T10:51:35.254Z,79.01
2022-10-02T10:54:17.394Z,78.90
2022-10-02T10:56:59.476Z,78.43
2022-10-02T11:00:03.458Z,79.14
2022-10-02T11:02:48.531Z,78.86
2022-10-02T11:05:45.945Z,79.20
2022-10-02T11:08:38.204Z,78.80
2022-10-02T11:11:27.879Z,78.53
2022-10-02T11:14:19.550Z,79.34
2022-10-02T11:17:24.423Z,78.86
2022-10-02T11:20:30.252Z,78.42
2022-10-02T11:23:17.675Z,79.32
2022-10-02T11:26:01.886Z,79.39
2022-10-02T11:28:48.203Z,78.76
2022-10-02T11:31:30.061Z,78.59
2022-10-02T11:34:28.387Z,79.30
2022-10-02T11:37:13.562Z,78.80
2022-10-02T11:39:53.355Z,78.32
2022-10-02T11:42:58.360Z,79.04
2022-10-02T11:45:25.405Z,78.71
2022-10-02T11:48:00.734Z,78.71
2022-10-02T11:50:42.576Z,78.52
2022-10-02T11:53:22.393Z,78.54
2022-10-02T11:56:22.229Z,78.73
2022-10-02T11:59:06.397Z,78.56
2022-10-02T12:01:47.468Z,79.04
2022-10-02T12:04:28.726Z,78.02
2022-10-02T12:07:07.848Z,78.34
2022-10-02T12:10:07.410Z,78.24
2022-10-02T12:12:46.264Z,78.64
2022-10-02T12:15:34.261Z,78.80
2022-10-02T12:18:21.479Z,78.81
2022-10-02T12:21:25.910Z,78.67
2022-10-02T12:24:44.160Z,78.17
2022-10-02T12:27:22.820Z,77.77
2022-10-02T12:30:04.084Z,76.94
2022-10-02T12:33:08.207Z,77.61
2022-10-02T12:36:05.427Z,76.39
2022-10-02T12:38:38.375Z,76.71
2022-10-02T12:41:56.136Z,76.52
2022-10-02T12:44:51.432Z,77.45
2022-10-02T12:47:36.614Z,77.29
2022-10-02T12:50:05.643Z,77.25
2022-10-02T12:53:02.438Z,76.60
2022-10-02T12:55:47.113Z,77.26
2022-10-02T12:58:49.999Z,77.40
2022-10-02T13:01:35.535Z,76.84
2022-10-02T13:04:28.012Z,76.10
2022-10-02T13:07:07.371Z,76.41
2022-10-02T13:10:00.127Z,76.45
2022-10-02T13:12:54.866Z,76.51
2022-10-02T13:15:25.521Z,76.81
2022-10-02T13:17:52.072Z,76.47
2022-10-02T13:20:28.971Z,76.55
2022-10-02T13:23:13.099Z,76.28
2022-10-02T13:25:58.671Z,76.80
2022-10-02T13:28:43.914Z,76.51
2022-10-02T13:31:22.387Z,76.91
2022-10-02T13:34:13.514Z,76.71
2022-10-02T13:37:02.767Z,77.05
2022-10-02T13:39:50.118Z,77.23
2022-10-02T13:42:37.118Z,76.78
2022-10-02T13:45:09.523Z,77.36
2022-10-02T13:47:48.746Z,76.94
2022-10-02T13:50:36.512Z,76.99
2022-10-02T13:53:23.559Z,76.93
2022-10-02T13:56:12.021Z,77.14
2022-10-02T13:58:53.445Z,77.41
2022-10-02T14:01:56.588Z,76.94
2022-10-02T14:04:43.436Z,76.94
2022-10-02T14:07:29.636Z,77.20
2022-10-02T14:10:13.392Z,76.91
2022-10-02T14:12:49.955Z,77.18
2022-10-02T14:15:19.148Z,77.46
2022-10-02T14:18:07.205Z,78.00
2022-10-02T14:20:59.384Z,77.09
2022-10-02T14:23:28.677Z,77.19
2022-10-02T14:26:16.444Z,76.84
2022-10-02T14:29:14.521Z,76.33
2022-10-02T14:32:04.031Z,77.57
2022-10-02T14:34:55.221Z,76.76
2022-10-02T14:37:37.876Z,77.15
2022-10-02T14:40:31.129Z,77.23
2022-10-02T14:43:13.840Z,77.80
2022-10-02T14:46:04.713Z,77.39
2022-10-02T14:49:07.144Z,76.84
2022-10-02T14:51:47.044Z,76.99
2022-10-02T14:54:52.085Z,77.42
2022-10-02T14:57:50.437Z,77.07
2022-10-02T15:00:24.402Z,77.37
2022-10-02T15:03:10.987Z,77.16
2022-10-02T15:05:58.852Z,78.50
2022-10-02T15:08:36.798Z,78.31
2022-10-02T15:11:06.134Z,77.93
2022-10-02T15:14:01.644Z,78.18
2022-10-02T15:17:06.399Z,78.55
2022-10-02T15:19:54.412Z,77.88
2022-10-02T15:22:34.139Z,78.15
2022-10-02T15:25:17.930Z,78.37
2022-10-02T15:28:08.036Z,78.79
2022-10-02T15:31:01.892Z,78.84
2022-10-02T15:33:39.734Z,77.75
2022-10-02T15:36:34.170Z,78.19
2022-10-02T15:39:19.223Z,78.98
2022-10-02T15:42:05.630Z,78.31
2022-10-02T15:44:57.006Z,79.01
2022-10-02T15:47:52.243Z,79.25
2022-10-02T15:50:28.190Z,79.16
2022-10-02T15:53:07.082Z,79.07
2022-10-02T15:55:45.808Z,79.31
2022-10-02T15:58:54.047Z,79.50
2022-10-02T16:02:07.925Z,79.14
2022-10-02T16:05:05.637Z,79.34
2022-10-02T16:07:57.994Z,79.83
2022-10-02T16:10:55.212Z,79.78
2022-10-02T16:13:29.638Z,79.12
2022-10-02T16:16:21.662Z,78.70
2022-10-02T16:19:11.534Z,80.07
2022-10-02T16:22:17.959Z,79.47
2022-10-02T16:25:06.419Z,79.41
2022-10-02T16:27:52.531Z,79.34
2022-10-02T16:30:24.529Z,79.48
2022-10-02T16:33:17.134Z,79.52
2022-10-02T16:35:51.433Z,79.80
2022-10-02T16:38:41.572Z,78.96
2022-10-02T16:41:24.457Z,79.68
2022-10-02T16:44:08.761Z,80.02
2022-10-02T16:46:44.381Z,79.57
2022-10-02T16:49:16.587Z,79.80
2022-10-02T16:52:01.868Z,80.20
2022-10-02T16:55:05.507Z,79.67
2022-10-02T16:57:35.339Z,79.85
2022-10-02T17:00:07.719Z,80.15
2022-10-02T17:02:45.582Z,80.36
2022-10-02T17:05:29.450Z,80.15
2022-10-02T17:08:01.870Z,80.11
2022-10-02T17:10:53.180Z,80.99
2022-10-02T17:13:38.520Z,79.98
2022-10-02T17:16:11.582Z,80.06
2022-10-02T17:18:47.460Z,80.21
2022-10-02T17:21:50.127Z,80.32
2022-10-02T17:24:34.474Z,80.82
2022-10-02T17:27:14.070Z,81.02
2022-10-02T17:29:49.869Z,80.06
2022-10-02T17:32:34.662Z,80.59
2022-10-02T17:35:01.581Z,80.55
2022-10-02T17:37:49.495Z,80.63
2022-10-02T17:40:31.883Z,80.34
2022-10-02T17:43:07.330Z,80.22
2022-10-02T17:46:07.465Z,80.68
2022-10-02T17:48:59.803Z,80.37
2022-10-02T17:51:58.232Z,80.85
2022-10-02T17:55:00.632Z,80.34
2022-10-02T17:57:42.915Z,79.89
2022-10-02T18:00:13.780Z,80.86
2022-10-02T18:02:46.303Z,80.31
2022-10-02T18:05:45.271Z,80.49
2022-10-02T18:08:12.003Z,80.97
2022-10-02T18:11:01.776Z,80.55
2022-10-02T18:14:05.395Z,80.20
2022-10-02T18:16:47.632Z,81.05
2022-10-02T18:19:32.608Z,80.46
2022-10-02T18:22:06.668Z,80.82
2022-10-02T18:24:55.212Z,80.37
2022-10-02T18:27:58.297Z,80.64
2022-10-02T18:30:32.952Z,80.67
2022-10-02T18:33:31.557Z,80.84
2022-10-02T18:36:29.757Z,81.27
2022-10-02T18:39:12.049Z,80.68
2022-10-02T18:42:16.839Z,81.32
2022-10-02T18:45:06.649Z,81.32
2022-10-02T18:47:51.982Z,80.55
2022-10-02T18:50:29.398Z,81.16
2022-10-02T18:53:25.443Z,81.41
2022-10-02T18:56:02.847Z,81.22
2022-10-02T18:58:49.014Z,81.50
2022-10-02T19:01:21.606Z,81.54
2022-10-02T19:04:13.102Z,80.92
2022-10-02T19:06:51.937Z,80.85
2022-10-02T19:09:27.866Z,80.39
2022-10-02T19:12:18.944Z,80.82
2022-10-02T19:14:48.408Z,80.86
2022-10-02T19:17:26.916Z,81.17
2022-10-02T19:19:56.553Z,81.75
2022-10-02T19:22:30.856Z,80.83
2022-10-02T19:25:13.919Z,81.56
2022-10-02T19:27:43.761Z,80.94
2022-10-02T19:30:26.579Z,81.90
2022-10-02T19:32:56.321Z,81.21
2022-10-02T19:35:32.593Z,80.98
2022-10-02T19:38:12.635Z,80.95
2022-10-02T19:40:40.711Z,81.08
2022-10-02T19:43:31.257Z,81.23
2022-10-02T19:46:05.351Z,81.18
2022-10-02T19:48:33.348Z,81.70
2022-10-02T19:51:17.187Z,81.79
2022-10-02T19:53:53.354Z,81.60
2022-10-02T19:56:30.113Z,80.79
2022-10-02T19:59:08.801Z,81.46
2022-10-02T20:01:46.692Z,81.28
2022-10-02T20:04:26.636Z,81.60
2022-10-02T20:07:04.693Z,80.95
2022-10-02T20:09:51.164Z,81.91
2022-10-02T20:12:58.192Z,81.11
2022-10-02T20:15:50.818Z,80.98
2022-10-02T20:18:23.267Z,81.16
2022-10-02T20:20:52.973Z,80.89
2022-10-02T20:23:28.387Z,80.46
2022-10-02T20:26:04.770Z,81.04
2022-10-02T20:28:41.422Z,80.73
2022-10-02T20:31:16.342Z,80.60
2022-10-02T20:33:54.618Z,80.69
2022-10-02T20:36:26.575Z,80.75
2022-10-02T20:38:59.983Z,80.46
2022-10-02T20:42:05.059Z,80.62
2022-10-02T20:44:36.261Z,80.57
2022-10-02T20:47:22.735Z,80.81
2022-10-02T20:50:08.109Z,81.02
2022-10-02T20:52:52.651Z,80.08
2022-10-02T20:55:53.574Z,80.70
2022-10-02T20:58:38.843Z,80.38
2022-10-02T21:01:18.185Z,80.51
2022-10-02T21:03:50.998Z,80.43
2022-10-02T21:06:30.287Z,80.69
2022-10-02T21:09:09.588Z,80.15
2022-10-02T21:11:56.058Z,80.71
2022-10-02T21:14:37.224Z,80.46
2022-10-02T21:17:25.714Z,80.98
2022-10-02T21:20:46.186Z,81.41
2022-10-02T21:23:39.160Z,80.63
2022-10-02T21:26:31.900Z,80.98
2022-10-02T21:29:01.354Z,81.09
2022-10-02T21:32:20.237Z,80.73
2022-10-02T21:35:08.024Z,80.76
2022-10-02T21:37:37.501Z,80.24
2022-10-02T21:40:42.879Z,79.85
2022-10-02T21:43:30.948Z,80.32
2022-10-02T21:46:22.093Z,79.89
2022-10-02T21:49:14.213Z,80.64
2022-10-02T21:52:00.123Z,80.34
2022-10-02T21:54:51.325Z,80.55
2022-10-02T21:57:42.665Z,80.49
2022-10-02T22:00:48.031Z,80.63
2022-10-02T22:03:58.970Z,80.83
2022-10-02T22:06:54.643Z,80.56
2022-10-02T22:10:02.912Z,80.33
2022-10-02T22:13:11.965Z,80.85
2022-10-02T22:16:10.971Z,81.06
2022-10-02T22:18:53.556Z,80.68
2022-10-02T22:21:23.188Z,80.93
2022-10-02T22:24:26.764Z,81.72
2022-10-02T22:27:18.163Z,81.62
2022-10-02T22:29:50.683Z,81.23
2022-10-02T22:32:45.201Z,81.58
2022-10-02T22:35:23.507Z,81.16
2022-10-02T22:38:04.317Z,80.71
2022-10-02T22:40:45.596Z,81.07
2022-10-02T22:43:21.541Z,80.91
2022-10-02T22:45:59.653Z,80.91
2022-10-02T22:48:49.506Z,80.81
2022-10-02T22:51:22.628Z,80.34
2022-10-02T22:53:52.287Z,80.93
2022-10-02T22:56:31.333Z,80.41
2022-10-02T22:59:23.079Z,80.47
2022-10-02T23:02:22.548Z,80.58
2022-10-02T23:05:14.653Z,80.78
2022-10-02T23:07:55.656Z,80.58
2022-10-02T23:10:33.128Z,80.09
2022-10-02T23:13:08.894Z,80.55
2022-10-02T23:15:47.413Z,80.33
2022-10-02T23:18:33.347Z,80.94
2022-10-02T23:21:04.511Z,80.34
2022-10-02T23:23:46.399Z,80.21
2022-10-02T23:26:26.606Z,80.01
2022-10-02T23:29:14.192Z,80.66
2022-10-02T23:31:50.221Z,80.48
2022-10-02T23:34:30.953Z,80.27
2022-10-02T23:37:16.229Z,79.82
2022-10-02T23:39:58.696Z,80.18
2022-10-02T23:42:44.099Z,80.36
2022-10-02T23:45:26.072Z,78.88
2022-10-02T23:47:58.845Z,79.95
2022-10-02T23:50:30.117Z,79.80
2022-10-02T23:53:02.713Z,80.23
2022-10-02T23:55:51.873Z,80.44
2022-10-02T23:58:39.824Z,80.46
